createdAt,value
2018-05-26T00:01:03.434Z,14.50
2018-05-26T00:03:31.914Z,14.40
2018-05-26T00:06:00.360Z,14.50
2018-05-26T00:08:29.743Z,14.40
2018-05-26T00:10:58.505Z,14.40
2018-05-26T00:13:27.040Z,14.40
2018-05-26T00:15:56.265Z,14.40
2018-05-26T00:18:24.711Z,14.30
2018-05-26T00:20:53.182Z,14.40
2018-05-26T00:23:21.899Z,14.30
2018-05-26T00:25:51.125Z,14.20
2018-05-26T00:28:19.560Z,14.40
2018-05-26T00:30:48.237Z,14.40
2018-05-26T00:33:16.704Z,14.40
2018-05-26T00:35:45.238Z,14.40
2018-05-26T00:38:14.702Z,14.10
2018-05-26T00:40:43.440Z,14.10
2018-05-26T00:43:11.985Z,14.00
2018-05-26T00:45:40.592Z,13.90
2018-05-26T00:48:09.824Z,13.90
2018-05-26T00:50:39.084Z,13.90
2018-05-26T00:53:08.316Z,14.00
2018-05-26T00:55:36.789Z,14.00
2018-05-26T00:58:05.224Z,14.00
2018-05-26T01:00:34.093Z,13.80
2018-05-26T01:03:02.748Z,13.80
2018-05-26T01:05:31.178Z,13.80
2018-05-26T01:07:59.702Z,13.70
2018-05-26T01:10:28.956Z,13.70
2018-05-26T01:12:57.518Z,13.60
2018-05-26T01:15:25.961Z,13.50
2018-05-26T01:17:55.162Z,13.40
2018-05-26T01:20:23.884Z,13.50
2018-05-26T01:22:52.501Z,13.60
2018-05-26T01:25:20.955Z,13.70
2018-05-26T01:27:50.533Z,13.70
2018-05-26T01:30:19.764Z,13.70
2018-05-26T01:32:48.244Z,13.50
2018-05-26T01:35:17.681Z,13.40
2018-05-26T01:37:46.137Z,13.30
2018-05-26T01:40:14.721Z,13.30
2018-05-26T01:42:43.385Z,13.50
2018-05-26T01:45:11.950Z,13.50
2018-05-26T01:47:40.416Z,13.50
2018-05-26T01:50:08.885Z,13.40
2018-05-26T01:52:37.347Z,13.30
2018-05-26T01:55:05.813Z,13.40
2018-05-26T01:57:34.324Z,13.40
2018-05-26T02:00:02.824Z,13.30
2018-05-26T02:02:31.266Z,13.30
2018-05-26T02:04:59.693Z,13.20
2018-05-26T02:07:28.146Z,13.20
2018-05-26T02:09:56.580Z,13.20
2018-05-26T02:12:25.805Z,13.10
2018-05-26T02:14:55.249Z,13.10
2018-05-26T02:17:23.784Z,13.00
2018-05-26T02:19:52.269Z,13.00
2018-05-26T02:22:21.694Z,13.10
2018-05-26T02:24:50.141Z,13.00
2018-05-26T02:27:18.600Z,13.00
2018-05-26T02:29:47.038Z,13.00
2018-05-26T02:32:15.680Z,13.00
2018-05-26T02:34:44.893Z,12.90
2018-05-26T02:37:14.300Z,13.00
2018-05-26T02:39:43.714Z,12.90
2018-05-26T02:42:12.358Z,12.90
2018-05-26T02:44:40.796Z,13.00
2018-05-26T02:47:09.314Z,12.90
2018-05-26T02:49:37.790Z,12.90
2018-05-26T02:52:06.406Z,13.00
2018-05-26T02:54:35.714Z,12.90
2018-05-26T02:57:05.060Z,12.90
2018-05-26T02:59:33.735Z,12.90
2018-05-26T03:02:02.389Z,12.90
2018-05-26T03:04:37.036Z,13.00
2018-05-26T03:07:11.036Z,13.00
2018-05-26T03:09:44.860Z,13.00
2018-05-26T03:12:19.685Z,12.90
2018-05-26T03:14:47.394Z,12.90
2018-05-26T03:17:28.480Z,12.90
2018-05-26T03:19:56.940Z,12.80
2018-05-26T03:22:25.460Z,12.80
2018-05-26T03:24:54.029Z,12.70
2018-05-26T03:27:22.461Z,12.80
2018-05-26T03:29:50.931Z,12.80
2018-05-26T03:32:20.250Z,12.70
2018-05-26T03:34:48.717Z,12.70
2018-05-26T03:37:18.022Z,12.70
2018-05-26T03:39:46.476Z,12.70
2018-05-26T03:42:14.920Z,12.70
2018-05-26T03:44:43.372Z,12.80
2018-05-26T03:47:12.002Z,12.90
2018-05-26T03:49:40.673Z,12.90
2018-05-26T03:52:09.108Z,13.00
2018-05-26T03:54:49.576Z,13.00
2018-05-26T03:57:29.812Z,13.20
2018-05-26T04:00:11.280Z,13.30
2018-05-26T04:02:39.797Z,13.20
2018-05-26T04:05:09.020Z,13.20
2018-05-26T04:07:37.501Z,13.30
2018-05-26T04:10:06.168Z,13.30
2018-05-26T04:12:35.420Z,13.40
2018-05-26T04:15:05.572Z,13.40
2018-05-26T04:17:34.048Z,13.40
2018-05-26T04:20:02.504Z,13.40
2018-05-26T04:22:30.956Z,13.40
2018-05-26T04:24:59.524Z,13.50
2018-05-26T04:27:28.949Z,13.60
2018-05-26T04:29:57.390Z,13.70
2018-05-26T04:32:25.897Z,13.70
2018-05-26T04:34:55.125Z,13.60
2018-05-26T04:37:23.620Z,13.70
2018-05-26T04:39:52.073Z,13.70
2018-05-26T04:42:20.500Z,13.70
2018-05-26T04:44:49.052Z,13.80
2018-05-26T04:47:17.545Z,13.90
2018-05-26T04:49:46.297Z,13.90
2018-05-26T04:52:15.345Z,14.30
2018-05-26T04:54:44.318Z,14.30
2018-05-26T04:57:12.957Z,14.30
2018-05-26T04:59:41.414Z,14.40
2018-05-26T05:02:09.872Z,14.40
2018-05-26T05:04:38.321Z,14.50
2018-05-26T05:07:06.832Z,14.80
2018-05-26T05:09:35.385Z,14.90
2018-05-26T05:12:04.594Z,14.90
2018-05-26T05:14:33.054Z,14.80
2018-05-26T05:17:01.784Z,14.90
2018-05-26T05:19:30.266Z,15.00
2018-05-26T05:21:58.956Z,15.00
2018-05-26T05:24:27.465Z,15.00
2018-05-26T05:26:55.908Z,15.10
2018-05-26T05:29:24.351Z,15.10
2018-05-26T05:31:52.807Z,15.20
2018-05-26T05:34:21.239Z,15.20
2018-05-26T05:36:49.720Z,15.30
2018-05-26T05:39:19.136Z,15.30
2018-05-26T05:41:47.580Z,15.30
2018-05-26T05:44:16.040Z,15.40
2018-05-26T05:46:44.513Z,15.40
2018-05-26T05:49:12.960Z,15.30
2018-05-26T05:51:41.426Z,15.30
2018-05-26T05:54:10.654Z,15.30
2018-05-26T05:56:39.292Z,15.20
2018-05-26T05:59:07.744Z,15.30
2018-05-26T06:01:36.223Z,15.30
2018-05-26T06:04:04.708Z,15.30
2018-05-26T06:06:33.268Z,15.30
2018-05-26T06:09:01.906Z,15.40
2018-05-26T06:11:30.698Z,15.40
2018-05-26T06:13:59.261Z,15.50
2018-05-26T06:16:27.868Z,15.60
2018-05-26T06:18:56.510Z,15.60
2018-05-26T06:21:25.028Z,15.70
2018-05-26T06:23:54.068Z,15.80
2018-05-26T06:26:23.401Z,16.10
2018-05-26T06:28:52.868Z,16.20
2018-05-26T06:31:21.722Z,16.20
2018-05-26T06:33:50.173Z,16.40
2018-05-26T06:36:18.826Z,16.50
2018-05-26T06:38:48.259Z,16.60
2018-05-26T06:41:16.405Z,16.70
2018-05-26T06:43:45.897Z,16.80
2018-05-26T06:46:14.673Z,16.90
2018-05-26T06:48:43.141Z,17.00
2018-05-26T06:51:11.784Z,17.20
2018-05-26T06:53:41.037Z,17.30
2018-05-26T06:56:09.480Z,17.30
2018-05-26T06:58:37.931Z,17.40
2018-05-26T07:01:07.162Z,17.50
2018-05-26T07:03:35.601Z,17.70
2018-05-26T07:06:04.885Z,17.80
2018-05-26T07:08:33.386Z,17.90
2018-05-26T07:11:01.841Z,18.00
2018-05-26T07:13:30.537Z,18.10
2018-05-26T07:15:59.008Z,18.10
2018-05-26T07:18:27.436Z,18.30
2018-05-26T07:20:55.900Z,18.50
2018-05-26T07:23:24.811Z,18.50
2018-05-26T07:25:54.009Z,18.70
2018-05-26T07:28:23.253Z,18.80
2018-05-26T07:30:51.684Z,18.80
2018-05-26T07:33:20.894Z,19.20
2018-05-26T07:35:49.345Z,19.30
2018-05-26T07:38:17.793Z,19.50
2018-05-26T07:40:46.224Z,19.50
2018-05-26T07:43:15.628Z,19.60
2018-05-26T07:45:45.046Z,19.80
2018-05-26T07:48:13.484Z,19.70
2018-05-26T07:50:41.935Z,19.80
2018-05-26T07:53:10.401Z,19.60
2018-05-26T07:55:39.827Z,19.50
2018-05-26T07:58:08.449Z,19.60
2018-05-26T08:00:37.682Z,19.70
2018-05-26T08:03:06.879Z,19.70
2018-05-26T08:05:36.109Z,19.80
2018-05-26T08:08:04.610Z,20.00
2018-05-26T08:10:33.132Z,19.90
2018-05-26T08:13:02.342Z,20.30
2018-05-26T08:15:31.584Z,20.40
2018-05-26T08:18:00.046Z,20.40
2018-05-26T08:20:28.588Z,20.30
2018-05-26T08:22:57.076Z,20.30
2018-05-26T08:25:25.745Z,20.50
2018-05-26T08:27:54.252Z,20.60
2018-05-26T08:30:22.713Z,20.90
2018-05-26T08:32:51.349Z,20.80
2018-05-26T08:35:19.804Z,20.80
2018-05-26T08:37:48.244Z,21.00
2018-05-26T08:40:16.713Z,21.20
2018-05-26T08:42:45.155Z,21.20
2018-05-26T08:45:14.579Z,21.30
2018-05-26T08:47:43.977Z,21.30
2018-05-26T08:50:12.424Z,21.70
2018-05-26T08:52:40.888Z,21.80
2018-05-26T08:55:09.372Z,21.80
2018-05-26T08:57:37.812Z,21.80
2018-05-26T09:00:06.241Z,21.50
2018-05-26T09:02:34.694Z,21.70
2018-05-26T09:05:03.144Z,21.70
2018-05-26T09:07:31.652Z,21.80
2018-05-26T09:10:00.100Z,22.10
2018-05-26T09:12:29.348Z,22.10
2018-05-26T09:14:57.788Z,22.10
2018-05-26T09:17:27.232Z,22.00
2018-05-26T09:19:55.757Z,22.00
2018-05-26T09:22:24.250Z,22.00
2018-05-26T09:24:53.450Z,22.40
2018-05-26T09:27:22.849Z,22.50
2018-05-26T09:29:51.438Z,22.50
2018-05-26T09:32:20.859Z,22.50
2018-05-26T09:34:50.069Z,22.70
2018-05-26T09:37:18.559Z,22.60
2018-05-26T09:39:47.038Z,22.60
2018-05-26T09:42:15.741Z,22.80
2018-05-26T09:44:44.180Z,23.00
2018-05-26T09:47:13.388Z,22.80
2018-05-26T09:49:41.866Z,22.90
2018-05-26T09:52:11.015Z,23.30
2018-05-26T09:54:39.476Z,23.30
2018-05-26T09:57:08.065Z,23.00
2018-05-26T09:59:36.514Z,23.10
2018-05-26T10:02:05.933Z,23.30
2018-05-26T10:04:34.581Z,23.20
2018-05-26T10:07:03.260Z,23.30
2018-05-26T10:09:31.703Z,23.10
2018-05-26T10:12:00.160Z,22.80
2018-05-26T10:14:28.678Z,22.80
2018-05-26T10:16:57.166Z,22.80
2018-05-26T10:19:25.796Z,23.30
2018-05-26T10:21:54.845Z,23.20
2018-05-26T10:24:23.313Z,23.30
2018-05-26T10:26:51.839Z,23.30
2018-05-26T10:29:20.497Z,23.60
2018-05-26T10:31:48.958Z,23.80
2018-05-26T10:34:17.392Z,23.90
2018-05-26T10:36:45.874Z,24.00
2018-05-26T10:39:14.737Z,24.10
2018-05-26T10:41:43.185Z,24.10
2018-05-26T10:44:11.761Z,24.40
2018-05-26T10:46:40.625Z,24.30
2018-05-26T10:49:09.124Z,24.50
2018-05-26T10:51:38.531Z,24.70
2018-05-26T10:54:07.157Z,24.70
2018-05-26T10:56:35.631Z,24.60
2018-05-26T10:59:04.068Z,24.70
2018-05-26T11:01:33.393Z,24.70
2018-05-26T11:04:02.099Z,24.70
2018-05-26T11:06:45.647Z,24.70
2018-05-26T11:09:14.562Z,24.20
2018-05-26T11:11:43.010Z,24.30
2018-05-26T11:14:11.473Z,24.70
2018-05-26T11:16:40.500Z,24.80
2018-05-26T11:19:08.931Z,25.10
2018-05-26T11:21:37.236Z,25.00
2018-05-26T11:24:06.751Z,24.70
2018-05-26T11:26:35.179Z,25.20
2018-05-26T11:29:03.853Z,25.00
2018-05-26T11:31:32.341Z,24.80
2018-05-26T11:34:01.599Z,24.60
2018-05-26T11:36:30.253Z,24.60
2018-05-26T11:38:59.580Z,25.00
2018-05-26T11:41:28.793Z,25.20
2018-05-26T11:43:57.241Z,25.20
2018-05-26T11:46:26.450Z,24.90
2018-05-26T11:48:55.752Z,24.50
2018-05-26T11:51:24.967Z,25.00
2018-05-26T11:53:53.592Z,25.00
2018-05-26T11:56:22.033Z,25.30
2018-05-26T11:58:50.669Z,25.60
2018-05-26T12:01:19.169Z,25.80
2018-05-26T12:03:47.632Z,25.60
2018-05-26T12:06:16.219Z,25.90
2018-05-26T12:08:44.702Z,25.60
2018-05-26T12:11:13.425Z,25.50
2018-05-26T12:13:42.010Z,25.80
2018-05-26T12:16:11.244Z,25.80
2018-05-26T12:18:39.704Z,26.00
2018-05-26T12:21:08.141Z,25.90
2018-05-26T12:23:36.835Z,26.10
2018-05-26T12:26:04.966Z,26.00
2018-05-26T12:28:33.437Z,26.40
2018-05-26T12:31:01.905Z,26.10
2018-05-26T12:33:31.136Z,26.20
2018-05-26T12:35:59.621Z,26.10
2018-05-26T12:38:27.732Z,26.30
2018-05-26T12:40:56.960Z,26.30
2018-05-26T12:43:26.182Z,26.50
2018-05-26T12:45:54.697Z,26.40
2018-05-26T12:48:23.188Z,26.10
2018-05-26T12:50:51.704Z,26.10
2018-05-26T12:53:20.898Z,26.40
2018-05-26T12:55:50.121Z,26.50
2018-05-26T12:58:18.583Z,26.90
2018-05-26T13:00:47.837Z,27.40
2018-05-26T13:03:16.281Z,27.40
2018-05-26T13:05:44.741Z,27.40
2018-05-26T13:08:14.229Z,27.50
2018-05-26T13:10:42.676Z,27.40
2018-05-26T13:13:11.256Z,27.30
2018-05-26T13:15:39.813Z,27.50
2018-05-26T13:18:08.261Z,27.50
2018-05-26T13:20:36.704Z,27.60
2018-05-26T13:23:05.228Z,27.50
2018-05-26T13:25:33.361Z,27.60
2018-05-26T13:28:01.841Z,27.80
2018-05-26T13:30:30.704Z,27.90
2018-05-26T13:32:59.912Z,27.80
2018-05-26T13:35:29.132Z,27.90
2018-05-26T13:37:57.701Z,28.50
2018-05-26T13:40:26.276Z,28.50
2018-05-26T13:42:55.788Z,28.00
2018-05-26T13:45:24.237Z,28.00
2018-05-26T13:47:52.722Z,28.10
2018-05-26T13:50:21.196Z,28.00
2018-05-26T13:52:49.848Z,28.20
2018-05-26T13:55:18.345Z,28.20
2018-05-26T13:57:47.709Z,28.40
2018-05-26T14:00:16.197Z,28.50
2018-05-26T14:02:44.621Z,28.50
2018-05-26T14:05:13.207Z,28.40
2018-05-26T14:07:41.718Z,31.10
2018-05-26T14:10:10.156Z,28.50
2018-05-26T14:12:38.670Z,28.20
2018-05-26T14:15:07.174Z,28.30
2018-05-26T14:17:36.383Z,28.40
2018-05-26T14:20:04.498Z,28.50
2018-05-26T14:22:32.961Z,28.40
2018-05-26T14:25:01.062Z,28.80
2018-05-26T14:27:29.521Z,28.80
2018-05-26T14:29:57.989Z,28.70
2018-05-26T14:32:26.472Z,28.80
2018-05-26T14:34:54.930Z,28.80
2018-05-26T14:37:24.143Z,28.80
2018-05-26T14:39:52.646Z,28.80
2018-05-26T14:42:21.192Z,29.10
2018-05-26T14:44:50.461Z,28.70
2018-05-26T14:47:19.113Z,28.70
2018-05-26T14:49:47.616Z,28.20
2018-05-26T14:52:16.222Z,27.40
2018-05-26T14:54:44.669Z,26.60
2018-05-26T14:57:13.101Z,25.60
2018-05-26T14:59:41.568Z,25.50
2018-05-26T15:02:10.000Z,25.20
2018-05-26T15:04:38.453Z,25.00
2018-05-26T15:07:07.896Z,24.90
2018-05-26T15:09:36.487Z,24.90
2018-05-26T15:12:04.830Z,24.90
2018-05-26T15:14:34.032Z,25.00
2018-05-26T15:17:03.299Z,25.00
2018-05-26T15:19:31.959Z,25.10
2018-05-26T15:22:00.413Z,25.10
2018-05-26T15:24:29.629Z,25.40
2018-05-26T15:26:58.185Z,25.10
2018-05-26T15:29:27.392Z,24.90
2018-05-26T15:31:56.891Z,24.90
2018-05-26T15:34:26.352Z,25.00
2018-05-26T15:36:54.785Z,25.00
2018-05-26T15:39:23.241Z,25.10
2018-05-26T15:41:52.586Z,25.30
2018-05-26T15:44:21.094Z,25.30
2018-05-26T15:46:49.592Z,25.30
2018-05-26T15:49:18.273Z,25.40
2018-05-26T15:51:47.318Z,25.50
2018-05-26T15:54:15.769Z,25.50
2018-05-26T15:56:44.229Z,25.50
2018-05-26T15:59:13.440Z,25.60
2018-05-26T16:01:42.385Z,25.50
2018-05-26T16:04:10.948Z,25.60
2018-05-26T16:06:40.150Z,25.60
2018-05-26T16:09:09.007Z,25.60
2018-05-26T16:11:37.457Z,25.50
2018-05-26T16:14:05.906Z,25.50
2018-05-26T16:16:35.270Z,25.50
2018-05-26T16:19:03.427Z,25.40
2018-05-26T16:21:32.173Z,25.40
2018-05-26T16:24:01.389Z,25.40
2018-05-26T16:26:29.529Z,25.40
2018-05-26T16:28:58.036Z,25.30
2018-05-26T16:31:26.525Z,25.30
2018-05-26T16:33:55.753Z,25.40
2018-05-26T16:36:24.696Z,25.60
2018-05-26T16:38:53.934Z,25.70
2018-05-26T16:41:23.520Z,25.90
2018-05-26T16:43:51.925Z,26.10
2018-05-26T16:46:20.585Z,26.30
2018-05-26T16:48:49.813Z,26.40
2018-05-26T16:51:18.253Z,26.30
2018-05-26T16:53:47.476Z,26.30
2018-05-26T16:56:15.949Z,26.10
2018-05-26T16:58:45.223Z,26.30
2018-05-26T17:01:13.857Z,26.30
2018-05-26T17:03:42.401Z,26.30
2018-05-26T17:06:11.627Z,26.30
2018-05-26T17:08:40.858Z,26.50
2018-05-26T17:11:09.300Z,26.40
2018-05-26T17:13:38.872Z,26.70
2018-05-26T17:16:07.396Z,26.60
2018-05-26T17:18:36.609Z,26.70
2018-05-26T17:21:05.057Z,26.60
2018-05-26T17:23:34.437Z,26.60
2018-05-26T17:26:02.913Z,26.50
2018-05-26T17:28:31.417Z,26.30
2018-05-26T17:31:00.729Z,25.90
2018-05-26T17:33:29.944Z,25.60
2018-05-26T17:35:58.450Z,25.50
2018-05-26T17:38:27.125Z,25.40
2018-05-26T17:40:55.573Z,25.30
2018-05-26T17:43:25.140Z,25.20
2018-05-26T17:45:54.620Z,25.20
2018-05-26T17:48:23.052Z,25.20
2018-05-26T17:50:51.689Z,25.20
2018-05-26T17:53:20.156Z,25.10
2018-05-26T17:55:49.680Z,25.10
2018-05-26T17:58:18.128Z,25.10
2018-05-26T18:00:46.588Z,25.10
2018-05-26T18:03:15.281Z,25.00
2018-05-26T18:05:43.892Z,25.00
2018-05-26T18:08:13.253Z,24.80
2018-05-26T18:10:41.840Z,24.80
2018-05-26T18:13:10.596Z,24.80
2018-05-26T18:15:39.073Z,24.70
2018-05-26T18:18:07.540Z,24.70
2018-05-26T18:20:36.752Z,24.40
2018-05-26T18:23:05.389Z,24.50
2018-05-26T18:25:33.957Z,24.50
2018-05-26T18:28:02.422Z,24.30
2018-05-26T18:30:30.866Z,24.20
2018-05-26T18:33:00.120Z,24.10
2018-05-26T18:35:28.629Z,24.10
2018-05-26T18:37:57.090Z,23.90
2018-05-26T18:40:25.540Z,23.80
2018-05-26T18:42:53.985Z,23.70
2018-05-26T18:45:22.434Z,23.50
2018-05-26T18:47:51.294Z,23.40
2018-05-26T18:50:20.537Z,23.30
2018-05-26T18:52:49.395Z,23.10
2018-05-26T18:55:17.833Z,23.00
2018-05-26T18:57:46.504Z,22.50
2018-05-26T19:00:15.338Z,22.50
2018-05-26T19:02:44.233Z,22.50
2018-05-26T19:05:13.081Z,22.30
2018-05-26T19:07:42.321Z,22.20
2018-05-26T19:10:11.138Z,22.20
2018-05-26T19:12:39.692Z,21.70
2018-05-26T19:15:08.160Z,21.30
2018-05-26T19:17:37.043Z,21.00
2018-05-26T19:20:06.099Z,21.10
2018-05-26T19:22:35.799Z,21.10
2018-05-26T19:25:04.248Z,21.10
2018-05-26T19:27:33.201Z,21.10
2018-05-26T19:30:02.076Z,21.00
2018-05-26T19:32:31.724Z,20.90
2018-05-26T19:35:00.738Z,20.80
2018-05-26T19:37:29.561Z,20.80
2018-05-26T19:39:58.655Z,20.70
2018-05-26T19:42:27.898Z,20.70
2018-05-26T19:44:56.726Z,20.60
2018-05-26T19:47:25.776Z,20.50
2018-05-26T19:49:54.805Z,20.50
2018-05-26T19:52:24.384Z,20.40
2018-05-26T19:54:53.641Z,20.50
2018-05-26T19:57:22.551Z,20.40
2018-05-26T19:59:52.141Z,20.30
2018-05-26T20:02:20.717Z,20.10
2018-05-26T20:04:49.691Z,20.00
2018-05-26T20:07:18.525Z,19.90
2018-05-26T20:09:47.392Z,19.80
2018-05-26T20:12:15.844Z,19.80
2018-05-26T20:14:45.078Z,19.80
2018-05-26T20:17:14.476Z,19.80
2018-05-26T20:19:43.341Z,19.60
2018-05-26T20:22:12.272Z,19.60
2018-05-26T20:24:41.193Z,19.50
2018-05-26T20:27:10.165Z,19.30
2018-05-26T20:29:38.613Z,19.30
2018-05-26T20:32:08.061Z,19.30
2018-05-26T20:34:36.942Z,19.30
2018-05-26T20:37:05.834Z,19.10
2018-05-26T20:39:35.051Z,19.10
2018-05-26T20:42:03.901Z,19.10
2018-05-26T20:44:32.776Z,19.10
2018-05-26T20:47:01.630Z,19.00
2018-05-26T20:49:30.082Z,18.60
2018-05-26T20:51:58.954Z,18.30
2018-05-26T20:54:27.849Z,18.20
2018-05-26T20:56:56.715Z,18.30
2018-05-26T20:59:25.584Z,18.40
2018-05-26T21:01:54.733Z,18.50
2018-05-26T21:04:23.597Z,18.50
2018-05-26T21:06:52.535Z,18.40
2018-05-26T21:09:21.634Z,18.20
2018-05-26T21:11:50.723Z,18.10
2018-05-26T21:14:19.610Z,18.10
2018-05-26T21:16:48.488Z,17.90
2018-05-26T21:19:19.683Z,17.90
2018-05-26T21:21:48.186Z,17.70
2018-05-26T21:24:17.437Z,17.60
2018-05-26T21:26:46.345Z,17.50
2018-05-26T21:29:15.357Z,17.60
2018-05-26T21:31:44.247Z,17.60
2018-05-26T21:34:13.585Z,17.60
2018-05-26T21:36:42.080Z,17.50
2018-05-26T21:39:10.564Z,17.30
2018-05-26T21:41:39.779Z,17.10
2018-05-26T21:44:08.288Z,17.10
2018-05-26T21:46:36.931Z,16.90
2018-05-26T21:49:06.218Z,16.90
2018-05-26T21:51:34.684Z,16.90
2018-05-26T21:54:03.195Z,17.00
2018-05-26T21:56:32.438Z,17.00
2018-05-26T21:59:01.202Z,17.10
2018-05-26T22:01:30.646Z,17.10
2018-05-26T22:03:59.321Z,17.00
2018-05-26T22:06:27.792Z,17.00
2018-05-26T22:08:56.233Z,16.90
2018-05-26T22:11:25.432Z,16.80
2018-05-26T22:13:55.599Z,16.80
2018-05-26T22:16:24.197Z,16.80
2018-05-26T22:18:52.683Z,14.50
2018-05-26T22:21:21.312Z,17.00
2018-05-26T22:23:50.547Z,16.80
2018-05-26T22:26:18.983Z,16.70
2018-05-26T22:28:47.500Z,16.70
2018-05-26T22:31:16.108Z,17.00
2018-05-26T22:33:44.585Z,16.80
2018-05-26T22:36:13.222Z,16.50
2018-05-26T22:38:41.689Z,16.50
2018-05-26T22:41:10.164Z,16.50
2018-05-26T22:43:38.615Z,16.50
2018-05-26T22:46:07.110Z,16.50
2018-05-26T22:48:35.617Z,16.40
2018-05-26T22:51:04.062Z,16.50
2018-05-26T22:53:32.566Z,16.50
2018-05-26T22:56:01.199Z,16.50
2018-05-26T22:58:29.829Z,16.60
2018-05-26T23:00:59.299Z,16.50
2018-05-26T23:03:27.917Z,16.50
2018-05-26T23:05:56.372Z,16.60
2018-05-26T23:08:24.912Z,16.60
2018-05-26T23:10:53.489Z,16.70
2018-05-26T23:13:21.949Z,16.50
2018-05-26T23:15:50.400Z,16.50
2018-05-26T23:18:19.614Z,16.40
2018-05-26T23:20:48.081Z,16.40
2018-05-26T23:23:16.523Z,16.40
2018-05-26T23:25:44.981Z,16.50
2018-05-26T23:28:13.425Z,16.30
2018-05-26T23:30:42.800Z,16.10
2018-05-26T23:33:11.296Z,16.10
2018-05-26T23:35:40.605Z,16.00
2018-05-26T23:38:09.844Z,16.20
2018-05-26T23:40:38.285Z,16.10
2018-05-26T23:43:07.693Z,16.10
2018-05-26T23:45:36.906Z,15.90
2018-05-26T23:48:05.789Z,15.80
2018-05-26T23:50:35.216Z,15.80
2018-05-26T23:53:04.444Z,15.80
2018-05-26T23:55:32.886Z,15.70
2018-05-26T23:58:01.643Z,15.70
